Nook, Pennsylvania
Current Conditions -  °F | °C
As of 5:15 AM on Sunday 26 Oct 2014 (Local Time) from KUNV Reporting Station
Clear Clear  
Wind Chill: 50°   Ceiling: Unl
Heat Index: 50°   Visibility: 10mi
Dew Point: 34°   Wind: 3mph
Humidity: 54%   Direction: 260°W
Pressure: 29.72"   Gusts: NA
Location:  40.5727°N, 77.4248°W
Report Text: KUNV 260915Z AUTO 26003KT 10SM CLR 10/01 A2972 RMK AO2 T01020012
Loading
Personal Weather Stations






























Interactive Weather Map
Tropical Storm Tracking
New forecast layout! Learn more

10-Day Weather Forecast

Advertisements
Track Severe Weather on mobile